Time;durP1;ratioP1;P1;durP2;ratioP2;P2;SDS_P1;SDS_P2;PMS_P1;PMS_P2;Temp;Humidity;BMP_temperature;BMP_pressure;BME280_temperature;BME280_humidity;BME280_pressure;Samples;Min_cycle;Max_cycle;Signal;HPM_P1;HPM_P2
2021/09/29 00:01:18;;;;;;;;;0.00;0.00;;;;;17.60;52.04;101378.91;5036997;28;45357;-81
2021/09/29 00:03:44;;;;;;;;;0.50;0.00;;;;;17.61;52.41;101375.41;5037411;28;45324;-84
2021/09/29 00:06:10;;;;;;;;;0.00;0.00;;;;;17.58;52.13;101355.28;5041025;28;45511;-80
2021/09/29 00:08:35;;;;;;;;;0.00;0.00;;;;;17.56;52.37;101359.59;5042538;28;45303;-82
2021/09/29 00:11:01;;;;;;;;;0.00;0.00;;;;;17.59;52.62;101353.56;5041645;28;45289;-79
2021/09/29 00:13:27;;;;;;;;;0.00;0.00;;;;;17.58;52.49;101352.66;5040487;28;45151;-82
2021/09/29 00:15:54;;;;;;;;;0.00;0.00;;;;;17.61;52.60;101359.72;5037160;28;45218;-81
2021/09/29 00:18:20;;;;;;;;;1.00;1.00;;;;;17.59;52.42;101364.91;5041804;28;46000;-84
2021/09/29 00:20:46;;;;;;;;;0.75;0.75;;;;;17.59;52.54;101361.44;5041406;28;45308;-88
2021/09/29 00:23:12;;;;;;;;;0.75;0.00;;;;;17.59;52.29;101356.19;5038566;28;45430;-88
2021/09/29 00:25:38;;;;;;;;;1.50;0.00;;;;;17.58;52.84;101363.16;5038116;28;45596;-85
2021/09/29 00:28:04;;;;;;;;;0.00;0.00;;;;;17.56;53.10;101351.75;5056630;28;46230;-85
2021/09/29 00:30:39;;;;;;;;;0.00;0.00;;;;;17.52;52.80;101349.91;5048949;28;45700;-85
2021/09/29 00:33:05;;;;;;;;;0.00;0.00;;;;;17.55;52.70;101349.09;5047395;28;45234;-87
2021/09/29 00:35:31;;;;;;;;;0.00;0.00;;;;;17.56;53.01;101353.50;5049564;28;45213;-85
2021/09/29 00:37:57;;;;;;;;;1.50;0.00;;;;;17.53;53.36;101366.50;5042877;28;45272;-88
2021/09/29 00:40:23;;;;;;;;;0.00;0.00;;;;;17.49;53.62;101355.06;5042697;28;45805;-87
2021/09/29 00:42:48;;;;;;;;;2.50;0.75;;;;;17.48;53.50;101338.50;5041675;28;45423;-88
2021/09/29 00:45:14;;;;;;;;;0.00;0.00;;;;;17.47;53.67;101341.03;5040676;28;45459;-88
2021/09/29 00:47:40;;;;;;;;;1.00;0.00;;;;;17.43;53.93;101332.22;5044216;28;45713;-89
2021/09/29 00:50:07;;;;;;;;;1.00;0.00;;;;;17.38;54.06;101322.50;5042051;28;45415;-86
2021/09/29 00:52:34;;;;;;;;;0.00;0.00;;;;;17.34;54.29;101332.00;5040505;28;45389;-82
2021/09/29 00:55:00;;;;;;;;;0.00;0.00;;;;;17.33;54.49;101330.22;5022434;28;45245;-86
2021/09/29 00:57:26;;;;;;;;;0.75;0.75;;;;;17.34;54.62;101316.31;5039561;28;46041;-84
2021/09/29 00:59:51;;;;;;;;;0.50;0.00;;;;;17.33;54.51;101318.03;5040463;28;45245;-86
2021/09/29 01:02:19;;;;;;;;;0.00;0.00;;;;;17.33;54.48;101319.75;5040302;28;45249;-85
2021/09/29 01:04:46;;;;;;;;;0.00;0.00;;;;;17.30;54.58;101328.44;5043078;28;45602;-82
2021/09/29 01:07:41;;;;;;;;;0.50;0.00;;;;;17.26;54.78;101323.09;5047239;28;45225;-86
2021/09/29 01:10:46;;;;;;;;;1.75;0.25;;;;;17.22;54.98;101318.59;5041324;28;45773;-86
2021/09/29 01:13:56;;;;;;;;;1.00;0.75;;;;;17.21;54.95;101328.19;5022967;28;45411;-84
2021/09/29 01:16:23;;;;;;;;;0.25;0.25;;;;;17.15;55.50;101321.09;5033310;28;45598;-86
2021/09/29 01:18:56;;;;;;;;;0.00;0.00;;;;;17.14;55.35;101311.47;5043080;28;45464;-86
2021/09/29 01:21:24;;;;;;;;;1.00;1.00;;;;;17.14;55.57;101332.38;5044433;28;45227;-88
2021/09/29 01:24:09;;;;;;;;;0.25;0.00;;;;;17.14;55.94;101316.69;5022978;28;45478;-86
2021/09/29 01:26:38;;;;;;;;;1.75;0.00;;;;;17.12;55.41;101315.75;5042271;28;45586;-87
2021/09/29 01:29:10;;;;;;;;;0.75;0.75;;;;;17.12;56.53;101321.00;5046542;28;45469;-88
2021/09/29 01:31:37;;;;;;;;;0.75;0.00;;;;;17.10;57.31;101313.97;5045015;28;45343;-88
2021/09/29 01:34:05;;;;;;;;;1.00;0.00;;;;;17.08;57.21;101311.28;5046286;28;45314;-89
2021/09/29 01:36:31;;;;;;;;;2.25;0.00;;;;;17.06;57.46;101306.84;5047711;28;45415;-87
2021/09/29 01:38:58;;;;;;;;;2.00;0.75;;;;;17.04;57.78;101300.69;5042066;28;45271;-90
2021/09/29 01:41:29;;;;;;;;;0.75;0.75;;;;;17.02;57.61;101306.78;5042940;28;45466;-89
2021/09/29 01:43:56;;;;;;;;;0.00;0.00;;;;;16.99;57.96;101305.81;5040903;28;45459;-87
2021/09/29 01:46:24;;;;;;;;;1.50;0.00;;;;;16.99;58.18;101308.44;5041154;28;45243;-91
2021/09/29 01:49:06;;;;;;;;;0.00;0.00;;;;;17.01;58.31;101298.91;5042972;28;46591;-90
2021/09/29 01:51:36;;;;;;;;;0.00;0.00;;;;;17.00;58.84;101308.50;5044443;28;45158;-86
2021/09/29 01:54:05;;;;;;;;;1.75;0.00;;;;;16.99;58.28;101285.78;5041504;28;45313;-88
2021/09/29 01:56:31;;;;;;;;;0.25;0.25;;;;;16.97;58.57;101292.72;5023298;28;45463;-83
2021/09/29 01:58:57;;;;;;;;;0.75;0.00;;;;;16.96;59.13;101296.16;5039559;28;45279;-80
2021/09/29 02:01:23;;;;;;;;;2.50;1.00;;;;;16.96;58.98;101303.09;5040156;28;45224;-78
2021/09/29 02:03:48;;;;;;;;;0.00;0.00;;;;;16.96;59.21;101288.31;5043804;28;45359;-87
2021/09/29 02:06:14;;;;;;;;;0.00;0.00;;;;;16.94;59.39;101294.34;5050323;28;45347;-85
2021/09/29 02:08:40;;;;;;;;;0.00;0.00;;;;;16.90;59.40;101292.47;5028202;28;45276;-89
2021/09/29 02:11:06;;;;;;;;;0.00;0.00;;;;;16.85;59.48;101297.56;5042461;28;45368;-85
2021/09/29 02:13:32;;;;;;;;;1.75;0.25;;;;;16.82;60.01;101294.88;5046477;28;45325;-78
2021/09/29 02:15:57;;;;;;;;;0.75;0.75;;;;;16.82;60.02;101274.84;5032360;28;44771;-88
2021/09/29 02:18:23;;;;;;;;;0.75;0.75;;;;;16.85;60.09;101280.13;5025265;28;45942;-90
2021/09/29 02:20:52;;;;;;;;;1.75;0.75;;;;;16.89;60.56;101283.75;5033118;28;45209;-81
2021/09/29 02:23:18;;;;;;;;;1.75;0.25;;;;;16.89;60.56;101298.53;5035482;28;44620;-82
2021/09/29 02:25:44;;;;;;;;;0.00;0.00;;;;;16.86;60.90;101300.22;5029766;28;45467;-87
2021/09/29 02:28:09;;;;;;;;;0.75;0.75;;;;;16.84;60.65;101291.47;5027829;28;45815;-85
2021/09/29 02:30:35;;;;;;;;;2.00;1.00;;;;;16.86;60.57;101297.59;5028377;28;45442;-89
2021/09/29 02:33:01;;;;;;;;;0.00;0.00;;;;;16.86;60.26;101289.75;5023396;28;45411;-87
2021/09/29 02:35:26;;;;;;;;;2.50;0.75;;;;;16.90;60.91;101289.84;5021232;28;45388;-87
2021/09/29 02:37:52;;;;;;;;;0.75;0.00;;;;;16.89;60.80;101291.59;5024113;28;45955;-86
2021/09/29 02:40:17;;;;;;;;;0.00;0.00;;;;;16.91;61.46;101297.72;5018448;28;45316;-87
2021/09/29 02:42:43;;;;;;;;;1.25;1.25;;;;;16.92;61.17;101288.16;5018446;28;45380;-89
2021/09/29 02:45:09;;;;;;;;;1.00;0.75;;;;;16.92;60.98;101301.25;5018552;28;45396;-88
2021/09/29 02:47:35;;;;;;;;;1.00;1.00;;;;;16.89;62.07;101302.06;5018296;28;45274;-84
2021/09/29 02:50:00;;;;;;;;;0.00;0.00;;;;;16.85;61.39;101298.44;5025558;28;45245;-87
2021/09/29 02:52:26;;;;;;;;;0.25;0.25;;;;;16.84;62.04;101296.69;5030572;28;45229;-86
2021/09/29 02:54:51;;;;;;;;;0.00;0.00;;;;;16.81;61.97;101296.59;5023905;28;45213;-89
2021/09/29 02:57:17;;;;;;;;;0.50;0.50;;;;;16.81;61.95;101291.38;5041034;28;46451;-89
2021/09/29 02:59:43;;;;;;;;;0.50;0.50;;;;;16.79;62.06;101308.75;5046324;28;45288;-87
2021/09/29 03:02:08;;;;;;;;;1.00;1.00;;;;;16.76;62.87;101306.03;5041349;28;45224;-85
2021/09/29 03:04:34;;;;;;;;;0.00;0.00;;;;;16.71;62.76;101305.91;5045092;28;45514;-88
2021/09/29 03:07:00;;;;;;;;;0.50;0.50;;;;;16.67;62.62;101296.25;5040651;28;46196;-88
2021/09/29 03:09:25;;;;;;;;;1.00;1.00;;;;;16.65;62.55;101283.94;5039399;28;45446;-87
2021/09/29 03:11:51;;;;;;;;;0.50;0.25;;;;;16.67;63.05;101297.94;5037238;28;45437;-86
2021/09/29 03:14:16;;;;;;;;;0.75;0.00;;;;;16.68;62.77;101282.28;5033453;28;45664;-82
2021/09/29 03:16:42;;;;;;;;;0.00;0.00;;;;;16.68;62.86;101282.28;5037835;28;46251;-86
2021/09/29 03:19:08;;;;;;;;;0.00;0.00;;;;;16.67;62.74;101277.94;5037529;28;45499;-85
2021/09/29 03:21:33;;;;;;;;;1.25;0.50;;;;;16.67;62.82;101288.41;5037623;28;45459;-85
2021/09/29 03:23:59;;;;;;;;;0.50;0.50;;;;;16.68;63.02;101284.03;5019703;28;45389;-85
2021/09/29 03:26:24;;;;;;;;;1.25;0.50;;;;;16.69;63.43;101291.91;5038736;28;45312;-83
2021/09/29 03:28:50;;;;;;;;;0.00;0.00;;;;;16.69;63.32;101288.44;5041213;28;45336;-83
2021/09/29 03:31:15;;;;;;;;;0.25;0.25;;;;;16.70;63.12;101283.22;5042477;28;45452;-85
2021/09/29 03:33:41;;;;;;;;;0.00;0.00;;;;;16.70;63.45;101292.81;5042805;28;45581;-83
2021/09/29 03:36:07;;;;;;;;;1.50;0.25;;;;;16.70;62.95;101298.91;5039108;28;45276;-83
2021/09/29 03:38:33;;;;;;;;;0.00;0.00;;;;;16.71;63.12;101294.59;5037927;28;45369;-83
2021/09/29 03:40:59;;;;;;;;;0.75;0.75;;;;;16.73;63.24;101300.75;5039252;28;45190;-79
2021/09/29 03:43:24;;;;;;;;;0.00;0.00;;;;;16.73;63.29;101292.91;5038375;28;45501;-81
2021/09/29 03:45:50;;;;;;;;;0.00;0.00;;;;;16.72;63.46;101301.59;5037399;28;45432;-80
2021/09/29 03:48:16;;;;;;;;;2.00;0.50;;;;;16.74;64.26;101305.09;5037334;28;45335;-79
2021/09/29 03:50:41;;;;;;;;;1.75;0.00;;;;;16.71;65.87;101313.75;5038365;28;45816;-80
2021/09/29 03:53:07;;;;;;;;;1.25;0.00;;;;;16.68;66.17;101313.66;5038988;28;45305;-88
2021/09/29 03:55:33;;;;;;;;;0.50;0.00;;;;;16.68;66.45;101307.56;5043560;28;46154;-85
2021/09/29 03:57:58;;;;;;;;;0.25;0.25;;;;;16.66;66.01;101307.53;5046322;28;45402;-86
2021/09/29 04:00:24;;;;;;;;;1.00;0.00;;;;;16.63;66.45;101311.81;5058549;28;44735;-83
2021/09/29 04:02:50;;;;;;;;;0.00;0.00;;;;;16.59;65.86;101316.03;5033068;28;44838;-89
2021/09/29 04:05:15;;;;;;;;;0.00;0.00;;;;;16.58;66.65;101318.63;5044054;28;45340;-90
2021/09/29 04:07:41;;;;;;;;;0.25;0.25;;;;;16.52;66.48;101304.50;5041504;28;45454;-90
2021/09/29 04:10:09;;;;;;;;;0.25;0.25;;;;;16.52;66.02;101304.50;5041372;28;45398;-90
2021/09/29 04:12:35;;;;;;;;;0.25;0.25;;;;;16.52;66.85;101316.72;5042043;28;45501;-89
2021/09/29 04:15:01;;;;;;;;;1.00;1.00;;;;;16.53;66.39;101318.50;5041684;28;45419;-88
2021/09/29 04:17:27;;;;;;;;;1.00;1.00;;;;;16.52;66.17;101309.75;5041160;28;45592;-86
2021/09/29 04:19:53;;;;;;;;;0.50;0.00;;;;;16.51;66.13;101317.56;5041209;28;45283;-86
2021/09/29 04:22:19;;;;;;;;;0.00;0.00;;;;;16.48;66.49;101317.47;5042080;28;45439;-83
2021/09/29 04:24:44;;;;;;;;;1.00;1.00;;;;;16.49;66.33;101311.38;5045982;28;45571;-84
2021/09/29 04:27:11;;;;;;;;;0.00;0.00;;;;;16.49;66.67;101316.63;5048022;28;45213;-89
2021/09/29 04:29:37;;;;;;;;;0.25;0.25;;;;;16.52;65.88;101325.44;5044950;28;45247;-89
2021/09/29 04:32:05;;;;;;;;;0.50;0.50;;;;;16.55;65.55;101312.44;5043536;28;45378;-83
2021/09/29 04:34:30;;;;;;;;;0.00;0.00;;;;;16.54;65.86;101320.25;5027879;28;47709;-88
2021/09/29 04:36:56;;;;;;;;;0.00;0.00;;;;;16.53;66.20;101334.16;5045287;28;45458;-85
2021/09/29 04:39:22;;;;;;;;;0.00;0.00;;;;;16.49;66.31;101325.38;5046524;28;45285;-86
2021/09/29 04:41:47;;;;;;;;;0.00;0.00;;;;;16.48;66.37;101333.13;5044229;28;45569;-84
2021/09/29 04:44:13;;;;;;;;;0.25;0.00;;;;;16.49;66.22;101358.44;5045319;28;45370;-90
2021/09/29 04:46:39;;;;;;;;;1.75;0.00;;;;;16.46;66.63;101340.06;5043721;28;45420;-87
2021/09/29 04:49:04;;;;;;;;;0.00;0.00;;;;;16.42;67.86;101377.41;5041093;28;45312;-86
2021/09/29 04:51:30;;;;;;;;;0.25;0.00;;;;;16.37;66.06;101367.69;5043385;28;45556;-83
2021/09/29 04:53:56;;;;;;;;;0.00;0.00;;;;;16.33;66.43;101370.16;5048887;28;45289;-82
2021/09/29 04:56:22;;;;;;;;;0.00;0.00;;;;;16.27;66.91;101360.41;5045643;28;45244;-84
2021/09/29 04:58:47;;;;;;;;;0.00;0.00;;;;;16.28;67.31;101371.78;5041710;28;45327;-87
2021/09/29 05:01:14;;;;;;;;;0.00;0.00;;;;;16.20;67.68;101372.41;5040861;28;45570;-88
2021/09/29 05:03:39;;;;;;;;;0.75;0.75;;;;;16.17;67.11;101379.25;5041585;28;46247;-89
2021/09/29 05:06:05;;;;;;;;;3.75;2.00;;;;;16.20;66.43;101379.38;5040758;28;45328;-89
2021/09/29 05:08:35;;;;;;;;;1.50;0.00;;;;;16.21;65.11;101384.63;5022388;28;45415;-88
2021/09/29 05:11:10;;;;;;;;;0.00;0.00;;;;;16.13;65.17;101396.56;5043006;28;45253;-86
2021/09/29 05:13:36;;;;;;;;;0.00;0.00;;;;;16.06;65.50;101405.94;5039878;28;46709;-87
2021/09/29 05:16:03;;;;;;;;;0.00;0.00;;;;;16.03;64.61;101391.91;5041542;28;45477;-83
2021/09/29 05:18:30;;;;;;;;;0.00;0.00;;;;;16.01;64.78;101389.25;5040653;28;45430;-82
2021/09/29 05:20:56;;;;;;;;;0.00;0.00;;;;;16.01;64.30;101390.94;5041515;28;45508;-85
2021/09/29 05:23:22;;;;;;;;;0.00;0.00;;;;;15.93;64.26;101406.38;5044075;28;45561;-84
2021/09/29 05:25:48;;;;;;;;;0.00;0.00;;;;;15.92;64.28;101404.63;5024225;28;45958;-85
2021/09/29 05:28:16;;;;;;;;;0.00;0.00;;;;;15.89;64.48;101407.13;5040348;28;45417;-82
2021/09/29 05:30:44;;;;;;;;;1.00;0.00;;;;;15.81;64.42;101432.06;5040364;28;45376;-82
2021/09/29 05:33:09;;;;;;;;;0.50;0.00;;;;;15.75;64.71;101417.09;5045698;28;46098;-83
2021/09/29 05:35:35;;;;;;;;;0.00;0.00;;;;;15.73;65.21;101426.59;5046578;28;45358;-82
2021/09/29 05:38:01;;;;;;;;;2.25;0.00;;;;;15.73;65.41;101424.84;5040424;28;45384;-84
2021/09/29 05:40:27;;;;;;;;;0.00;0.00;;;;;15.75;65.00;101432.75;5042974;28;45476;-85
2021/09/29 05:42:52;;;;;;;;;0.00;0.00;;;;;15.77;65.14;101436.28;5040544;28;45498;-84
2021/09/29 05:45:18;;;;;;;;;0.00;0.00;;;;;15.75;65.87;101443.19;5026848;28;45490;-83
2021/09/29 05:47:44;;;;;;;;;1.00;0.00;;;;;15.77;65.06;101446.72;5050548;28;45860;-83
2021/09/29 05:50:10;;;;;;;;;0.00;0.00;;;;;15.79;65.03;101442.44;5053487;28;45348;-80
2021/09/29 05:52:36;;;;;;;;;1.00;0.00;;;;;15.83;65.43;101453.88;5052528;28;46780;-85
2021/09/29 05:55:02;;;;;;;;;0.25;0.25;;;;;15.82;65.04;101463.44;5051145;28;45244;-85
2021/09/29 05:57:29;;;;;;;;;0.50;0.25;;;;;15.83;64.78;101466.94;5048570;28;45180;-88
2021/09/29 05:59:54;;;;;;;;;0.00;0.00;;;;;15.83;65.27;101467.84;5050597;28;45438;-83
2021/09/29 06:02:20;;;;;;;;;0.00;0.00;;;;;15.79;65.00;101473.78;5047839;28;46071;-85
2021/09/29 06:04:45;;;;;;;;;0.00;0.00;;;;;15.77;64.80;101471.13;5044043;28;45443;-84
2021/09/29 06:07:14;;;;;;;;;0.00;0.00;;;;;15.73;64.99;101476.19;5037565;28;45395;-81
2021/09/29 06:09:40;;;;;;;;;1.00;0.00;;;;;15.72;64.83;101484.84;5044541;28;45315;-76
2021/09/29 06:12:08;;;;;;;;;1.00;0.00;;;;;15.75;64.69;101493.69;5048719;28;46070;-80
2021/09/29 06:14:34;;;;;;;;;0.00;0.00;;;;;15.82;64.79;101514.78;5037447;28;45280;-79
2021/09/29 06:17:16;;;;;;;;;0.00;0.00;;;;;15.77;64.97;101505.06;5036827;28;45517;-79
2021/09/29 06:19:41;;;;;;;;;0.00;0.00;;;;;15.79;64.86;101512.94;5030453;28;45502;-84
2021/09/29 06:22:08;;;;;;;;;2.50;2.50;;;;;15.82;64.98;101523.50;5039110;28;45310;-86
2021/09/29 06:24:34;;;;;;;;;0.00;0.00;;;;;15.84;64.88;101521.88;5047981;28;45446;-92
2021/09/29 06:26:59;;;;;;;;;1.25;0.25;;;;;15.86;64.61;101525.44;5047941;28;45420;-86
2021/09/29 06:29:25;;;;;;;;;0.00;0.00;;;;;15.89;65.01;101538.56;5058648;28;45337;-84
2021/09/29 06:31:52;;;;;;;;;1.00;0.00;;;;;15.87;65.09;101540.28;5062964;28;45502;-80
2021/09/29 06:34:18;;;;;;;;;0.75;0.75;;;;;15.87;65.26;101544.59;5048214;28;45341;-80
2021/09/29 06:36:44;;;;;;;;;2.50;0.75;;;;;15.86;64.47;101553.25;5045062;28;45471;-83
2021/09/29 06:39:10;;;;;;;;;0.00;0.00;;;;;15.88;65.12;101556.81;5045847;28;45664;-80
2021/09/29 06:41:35;;;;;;;;;1.50;0.75;;;;;15.95;64.42;101556.19;5049239;28;45457;-81
2021/09/29 06:44:01;;;;;;;;;1.00;0.00;;;;;15.91;64.18;101559.53;5057610;28;45252;-80
2021/09/29 06:46:27;;;;;;;;;1.25;0.50;;;;;15.91;64.71;101564.75;5029210;28;45533;-80
2021/09/29 06:48:52;;;;;;;;;1.00;0.00;;;;;15.90;64.88;101563.84;5036296;28;45292;-77
2021/09/29 06:51:18;;;;;;;;;0.00;0.00;;;;;15.89;64.93;101579.47;5034926;28;46494;-79
2021/09/29 06:53:44;;;;;;;;;0.00;0.00;;;;;15.92;64.94;101596.13;5035186;28;45510;-80
2021/09/29 06:56:09;;;;;;;;;1.00;1.00;;;;;15.96;64.42;101583.19;5017614;28;45392;-80
2021/09/29 06:58:35;;;;;;;;;0.00;0.00;;;;;15.98;64.17;101598.09;5036422;28;45653;-79
2021/09/29 07:01:01;;;;;;;;;0.50;0.50;;;;;15.98;63.57;101592.84;5036128;28;46026;-81
2021/09/29 07:03:26;;;;;;;;;1.00;0.50;;;;;15.97;63.45;101596.31;5036706;28;45430;-82
2021/09/29 07:05:52;;;;;;;;;0.00;0.00;;;;;15.92;63.13;101598.75;5037419;28;45265;-79
2021/09/29 07:08:18;;;;;;;;;3.00;0.50;;;;;15.89;63.42;101605.59;5037484;28;45686;-80
2021/09/29 07:10:43;;;;;;;;;0.00;0.00;;;;;15.87;63.31;101605.56;5035457;28;45431;-78
2021/09/29 07:13:10;;;;;;;;;0.75;0.00;;;;;15.83;63.14;101611.44;5036566;28;45395;-80
2021/09/29 07:15:36;;;;;;;;;0.00;0.00;;;;;15.84;62.92;101614.94;5020380;28;45420;-77
2021/09/29 07:18:04;;;;;;;;;0.75;0.75;;;;;15.79;63.12;101606.94;5045212;28;45150;-81
2021/09/29 07:20:29;;;;;;;;;2.00;0.00;;;;;15.77;63.04;101622.56;5022272;28;45486;-78
2021/09/29 07:22:57;;;;;;;;;0.00;0.00;;;;;15.68;63.72;101619.63;5037207;28;45483;-81
2021/09/29 07:25:23;;;;;;;;;0.50;0.50;;;;;15.61;63.45;101621.09;5036551;28;45506;-79
2021/09/29 07:27:49;;;;;;;;;2.00;1.00;;;;;15.58;63.66;101628.81;5037437;28;45350;-80
2021/09/29 07:30:15;;;;;;;;;0.50;0.50;;;;;15.58;64.33;101627.94;5036299;28;46105;-78
2021/09/29 07:32:41;;;;;;;;;0.00;0.00;;;;;15.57;64.23;101632.25;5021402;28;45914;-82
2021/09/29 07:35:07;;;;;;;;;0.00;0.00;;;;;15.56;64.73;101632.22;5019515;28;45199;-81
2021/09/29 07:37:34;;;;;;;;;1.50;1.00;;;;;15.53;64.35;101635.59;5035777;28;45486;-81
2021/09/29 07:40:00;;;;;;;;;0.00;0.00;;;;;15.55;64.51;101641.75;5019172;28;46791;-82
2021/09/29 07:42:25;;;;;;;;;0.00;0.00;;;;;15.53;64.75;101643.44;5037716;28;45357;-83
2021/09/29 07:44:51;;;;;;;;;0.00;0.00;;;;;15.52;64.76;101657.31;5040219;28;45324;-83
2021/09/29 07:47:16;;;;;;;;;1.00;1.00;;;;;15.55;64.74;101653.91;5038140;28;45317;-83
2021/09/29 07:49:42;;;;;;;;;0.25;0.00;;;;;15.56;64.41;101653.09;5036577;28;45617;-82
2021/09/29 07:52:08;;;;;;;;;1.00;0.00;;;;;15.64;64.92;101664.69;5036632;28;45267;-84
2021/09/29 07:54:33;;;;;;;;;0.75;0.25;;;;;15.67;64.46;101663.91;5018475;28;45412;-81
2021/09/29 07:56:59;;;;;;;;;0.00;0.00;;;;;15.71;64.58;101671.03;5036431;28;45327;-84
2021/09/29 07:59:25;;;;;;;;;0.00;0.00;;;;;15.71;64.26;101674.53;5018308;28;45448;-80
2021/09/29 08:01:51;;;;;;;;;0.00;0.00;;;;;15.67;64.08;101669.13;5036933;28;45182;-82
2021/09/29 08:04:21;;;;;;;;;0.75;0.25;;;;;15.61;63.62;101678.53;5036920;28;45307;-83
2021/09/29 08:06:47;;;;;;;;;0.75;0.75;;;;;15.61;63.45;101680.25;5018961;28;45456;-80
2021/09/29 08:09:13;;;;;;;;;3.75;1.00;;;;;15.57;63.74;101681.84;5036282;28;46409;-82
2021/09/29 08:11:39;;;;;;;;;1.00;1.00;;;;;15.56;63.54;101692.25;5038059;28;45269;-85
2021/09/29 08:14:04;;;;;;;;;0.00;0.00;;;;;15.56;63.42;101687.03;5040072;28;45352;-80
2021/09/29 08:16:30;;;;;;;;;1.50;1.00;;;;;15.57;62.95;101680.97;5019652;28;45435;-82
2021/09/29 08:18:56;;;;;;;;;0.00;0.00;;;;;15.60;63.16;101699.38;5036751;28;45588;-78
2021/09/29 08:21:29;;;;;;;;;1.75;0.00;;;;;15.60;62.44;101702.84;5018666;28;45617;-82
2021/09/29 08:24:01;;;;;;;;;0.00;0.00;;;;;15.60;61.58;101707.19;5018336;28;45316;-82
2021/09/29 08:29:22;;;;;;;;;0.75;0.75;;;;;15.59;61.05;101711.50;5035999;28;45708;-83
2021/09/29 08:34:39;;;;;;;;;3.00;0.00;;;;;15.61;60.86;101727.22;5036230;28;45336;-81
2021/09/29 08:45:12;;;;;;;;;0.00;0.00;;;;;15.71;59.97;101742.41;5037743;28;45400;-83
2021/09/29 08:48:03;;;;;;;;;0.75;0.00;;;;;15.74;59.95;101744.28;5036727;28;45342;-83
2021/09/29 08:50:46;;;;;;;;;1.00;0.00;;;;;15.77;58.81;101744.38;5039777;28;45458;-81
2021/09/29 08:53:30;;;;;;;;;0.25;0.25;;;;;15.74;59.09;101752.97;5021465;28;45245;-83
2021/09/29 08:56:17;;;;;;;;;1.00;1.00;;;;;15.71;58.01;101771.13;5039439;28;45412;-77
2021/09/29 09:16:29;;;;;;;;;1.00;1.00;;;;;15.92;56.78;101784.19;5042750;28;45328;-81
2021/09/29 09:18:33;;;;;;;;;0.00;0.00;;;;;15.99;56.30;101792.22;5036863;28;45359;-82
2021/09/29 09:21:03;;;;;;;;;0.50;0.25;;;;;15.96;55.69;101789.53;5041048;28;45611;-83
2021/09/29 09:23:36;;;;;;;;;1.25;0.00;;;;;15.96;56.77;101789.53;5040519;28;45394;-83
2021/09/29 09:26:22;;;;;;;;;2.00;1.00;;;;;15.99;56.41;101790.53;5021567;28;45262;-81
2021/09/29 09:29:01;;;;;;;;;0.00;0.00;;;;;16.06;56.37;101797.75;5021261;28;45278;-80
2021/09/29 09:31:27;;;;;;;;;0.00;0.00;;;;;16.15;55.56;101799.84;5021116;28;45437;-83
2021/09/29 09:34:04;;;;;;;;;0.75;0.00;;;;;16.24;55.21;101804.53;5039476;28;45466;-79
2021/09/29 09:36:38;;;;;;;;;1.75;0.00;;;;;16.28;53.80;101802.91;5039275;28;45823;-84
2021/09/29 09:39:17;;;;;;;;;1.25;1.25;;;;;16.29;53.82;101820.38;5042310;28;45435;-77
2021/09/29 09:41:47;;;;;;;;;2.75;0.00;;;;;16.37;53.75;101809.34;5042662;28;45165;-83
2021/09/29 09:44:24;;;;;;;;;1.00;1.00;;;;;16.38;53.10;101818.97;5021013;28;45420;-80
2021/09/29 09:47:19;;;;;;;;;0.75;0.75;;;;;16.37;53.03;101814.59;5037971;28;45352;-85
2021/09/29 09:49:47;;;;;;;;;0.00;0.00;;;;;16.35;52.97;101815.38;5018337;28;45515;-80
2021/09/29 09:52:14;;;;;;;;;3.50;2.00;;;;;16.39;53.46;101809.44;5018242;28;45557;-80
2021/09/29 09:54:42;;;;;;;;;3.00;1.00;;;;;16.58;53.30;101820.56;5031033;28;45292;-83
2021/09/29 09:57:19;;;;;;;;;1.75;1.00;;;;;16.84;52.79;101805.78;5027746;28;45386;-80
2021/09/29 09:59:49;;;;;;;;;0.25;0.25;;;;;17.01;51.88;101815.13;5038749;28;45461;-82
2021/09/29 10:02:15;;;;;;;;;1.00;1.00;;;;;17.14;52.07;101815.56;5038130;28;45477;-83
2021/09/29 10:04:43;;;;;;;;;2.50;0.00;;;;;17.29;51.40;101812.56;5042013;28;46374;-84
2021/09/29 10:07:12;;;;;;;;;1.25;0.00;;;;;17.42;50.26;101825.22;5051209;28;45744;-83
2021/09/29 10:09:42;;;;;;;;;2.25;0.00;;;;;17.50;50.24;101835.97;5045562;28;44783;-84
2021/09/29 10:23:08;;;;;;;;;5.00;4.75;;;;;17.73;48.56;101836.69;5034792;28;45511;-85
2021/09/29 10:28:27;;;;;;;;;8.25;5.00;;;;;17.39;50.43;101872.22;5022496;28;45752;-85
2021/09/29 10:34:17;;;;;;;;;12.25;11.50;;;;;16.55;62.23;101923.31;4973782;28;45392;-82
2021/09/29 10:40:30;;;;;;;;;0.75;0.00;;;;;16.00;57.89;101912.47;5021484;28;45625;-81
2021/09/29 10:43:04;;;;;;;;;0.00;0.00;;;;;15.89;57.79;101905.91;5027048;28;45510;-82
2021/09/29 10:45:56;;;;;;;;;0.00;0.00;;;;;15.81;57.77;101905.56;5018791;28;45398;-84
2021/09/29 11:03:15;;;;;;;;;2.00;2.00;;;;;15.46;58.13;101926.78;5021089;28;45795;-85
2021/09/29 11:28:13;;;;;;;;;1.00;1.00;;;;;15.90;55.70;101950.38;5037726;28;45449;-85
2021/09/29 11:31:04;;;;;;;;;1.00;1.00;;;;;16.22;54.63;101956.00;5022591;28;45804;-84
2021/09/29 11:33:35;;;;;;;;;0.00;0.00;;;;;16.48;53.47;101961.38;5025416;28;46975;-87
2021/09/29 11:38:43;;;;;;;;;0.00;0.00;;;;;16.78;53.28;101970.34;5034572;28;45312;-85
2021/09/29 12:12:28;;;;;;;;;0.25;0.00;;;;;17.39;49.75;101981.31;5042828;28;45399;-83
2021/09/29 12:14:57;;;;;;;;;1.25;0.50;;;;;17.34;50.03;101975.91;5023557;28;45321;-90
2021/09/29 12:17:26;;;;;;;;;1.00;1.00;;;;;17.32;50.06;101970.63;5041291;28;46201;-88
2021/09/29 12:19:57;;;;;;;;;0.00;0.00;;;;;17.31;49.86;101986.25;5036758;28;45580;-83
2021/09/29 12:22:31;;;;;;;;;2.00;2.00;;;;;17.27;49.50;101981.78;5037399;28;45418;-80
2021/09/29 12:25:15;;;;;;;;;1.00;1.00;;;;;17.25;49.39;101978.22;5022730;28;45344;-91
2021/09/29 12:28:01;;;;;;;;;0.00;0.00;;;;;17.22;48.20;101984.22;5045130;28;46335;-86
2021/09/29 12:30:38;;;;;;;;;0.50;0.50;;;;;17.20;48.68;101990.22;5027683;28;45812;-86
2021/09/29 12:35:44;;;;;;;;;0.00;0.00;;;;;17.24;46.54;101990.38;5043899;28;45205;-83
2021/09/29 12:38:13;;;;;;;;;0.00;0.00;;;;;17.22;46.60;101993.78;5038588;28;45294;-85
2021/09/29 12:40:42;;;;;;;;;0.00;0.00;;;;;17.28;46.80;101992.28;5031587;28;45893;-81
2021/09/29 12:43:16;;;;;;;;;0.75;0.00;;;;;17.27;46.17;101993.13;5022863;28;45258;-85
2021/09/29 12:45:49;;;;;;;;;0.50;0.00;;;;;17.26;46.74;102001.81;5037602;28;45486;-83
2021/09/29 12:48:18;;;;;;;;;1.50;0.50;;;;;17.40;46.88;102011.91;5019018;28;45495;-81
2021/09/29 12:50:55;;;;;;;;;0.00;0.00;;;;;17.46;46.21;102006.88;5022605;28;45225;-82
2021/09/29 12:56:05;;;;;;;;;0.25;0.00;;;;;17.84;45.12;102033.53;5040625;28;45362;-82
2021/09/29 12:58:32;;;;;;;;;0.00;0.00;;;;;18.10;44.95;102015.19;5044633;28;45462;-82
2021/09/29 13:00:59;;;;;;;;;0.00;0.00;;;;;18.21;43.14;102034.78;5022286;28;45656;-82
2021/09/29 13:03:25;;;;;;;;;0.00;0.00;;;;;18.16;43.71;102038.09;5022072;28;45336;-82
2021/09/29 13:05:51;;;;;;;;;0.00;0.00;;;;;18.03;43.17;102040.28;5039728;28;45605;-82
2021/09/29 13:08:18;;;;;;;;;0.00;0.00;;;;;17.86;42.89;102052.81;5039360;28;45333;-82
2021/09/29 13:10:43;;;;;;;;;0.00;0.00;;;;;17.64;44.00;102051.16;5039473;28;45258;-82
2021/09/29 13:13:12;;;;;;;;;0.00;0.00;;;;;17.54;44.44;102054.28;5039148;28;45233;-82
2021/09/29 13:15:41;;;;;;;;;0.00;0.00;;;;;17.39;43.43;102071.19;5037711;28;45440;-83
2021/09/29 13:18:12;;;;;;;;;0.75;0.00;;;;;17.29;45.12;102069.97;5038884;28;45351;-82
2021/09/29 13:20:39;;;;;;;;;0.00;0.00;;;;;17.26;45.54;102054.16;5038988;28;45458;-84
2021/09/29 13:23:16;;;;;;;;;0.25;0.00;;;;;17.31;45.55;102068.31;5039115;28;45284;-83
2021/09/29 13:36:41;;;;;;;;;0.00;0.00;;;;;17.40;46.67;102087.81;5038360;28;45360;-83
2021/09/29 13:39:09;;;;;;;;;2.50;0.50;;;;;17.75;45.99;102091.72;5020646;28;48115;-82
2021/09/29 13:41:36;;;;;;;;;0.50;0.25;;;;;17.97;45.70;102071.53;5038615;28;45248;-82
2021/09/29 13:44:03;;;;;;;;;0.00;0.00;;;;;18.14;45.53;102081.72;5039119;28;45372;-83
2021/09/29 13:46:29;;;;;;;;;1.50;0.00;;;;;18.19;45.32;102081.03;5039464;28;45553;-84
2021/09/29 13:48:56;;;;;;;;;0.50;0.00;;;;;18.26;43.20;102084.72;5021471;28;45498;-83